createdAt,value
2018-11-07T07:59:05.411Z,99.90
2018-11-07T08:01:35.663Z,99.90
2018-11-07T08:04:06.416Z,99.90
2018-11-07T08:06:38.019Z,95.60
2018-11-07T08:09:11.714Z,67.10
2018-11-07T08:11:42.009Z,24.80
2018-11-07T08:14:12.407Z,12.90
2018-11-07T08:16:42.480Z,2.20
2018-11-07T08:19:12.524Z,5.40
2018-11-07T08:21:42.516Z,1.00
2018-11-07T08:24:12.948Z,1.00
2018-11-07T08:26:43.313Z,1.00
2018-11-07T08:29:13.660Z,1.00
2018-11-07T08:31:43.779Z,1.00
2018-11-07T08:34:14.900Z,1.00
2018-11-07T08:36:45.090Z,1.00
2018-11-07T08:39:15.306Z,1.00
2018-11-07T08:41:46.417Z,1.00
2018-11-07T08:44:17.310Z,1.00
2018-11-07T08:46:47.819Z,1.00
2018-11-07T08:49:18.875Z,1.00
2018-11-07T08:51:49.109Z,1.00
2018-11-07T08:54:19.512Z,1.00
2018-11-07T08:56:49.913Z,1.00
2018-11-07T08:59:20.727Z,1.00
2018-11-07T09:01:51.311Z,1.00
2018-11-07T09:04:22.174Z,1.00
2018-11-07T09:06:52.512Z,1.00
2018-11-07T09:09:22.699Z,1.00
2018-11-07T09:11:53.065Z,1.00
2018-11-07T09:14:23.480Z,1.00
2018-11-07T09:16:54.194Z,1.00
2018-11-07T09:19:24.832Z,1.00
2018-11-07T09:21:55.354Z,1.00
2018-11-07T09:24:26.410Z,1.00
2018-11-07T09:26:56.911Z,1.00
2018-11-07T09:29:27.419Z,1.00
2018-11-07T09:31:57.909Z,1.00
2018-11-07T09:34:28.133Z,1.00
2018-11-07T09:36:58.597Z,1.00
2018-11-07T09:39:28.965Z,1.00
2018-11-07T09:41:59.313Z,1.00
2018-11-07T09:44:29.730Z,1.00
2018-11-07T09:47:00.221Z,1.00
2018-11-07T09:49:30.293Z,1.00
2018-11-07T09:52:00.910Z,1.00
2018-11-07T09:54:31.931Z,1.00
2018-11-07T09:57:02.717Z,1.00
2018-11-07T09:59:33.166Z,1.00
2018-11-07T10:02:03.624Z,1.00
2018-11-07T10:04:33.978Z,1.00
2018-11-07T10:07:04.317Z,1.00
2018-11-07T10:09:34.439Z,1.00
2018-11-07T10:12:05.858Z,1.00
2018-11-07T10:14:36.908Z,1.00
2018-11-07T10:17:07.876Z,1.00
2018-11-07T10:19:38.937Z,1.00
2018-11-07T10:22:09.804Z,1.00
2018-11-07T10:24:40.611Z,1.00
2018-11-07T10:27:11.421Z,1.00
2018-11-07T10:29:42.396Z,1.00
2018-11-07T10:32:12.964Z,1.00
2018-11-07T10:34:44.128Z,1.00
2018-11-07T10:37:14.830Z,1.00
2018-11-07T10:39:45.170Z,1.00
2018-11-07T10:42:16.961Z,1.00
2018-11-07T10:44:48.132Z,1.00
2018-11-07T10:47:18.283Z,1.00
2018-11-07T10:49:49.414Z,1.00
2018-11-07T10:52:20.617Z,1.00
2018-11-07T10:54:51.747Z,1.00
2018-11-07T10:57:22.617Z,1.00
2018-11-07T10:59:53.387Z,1.00
2018-11-07T11:02:28.568Z,1.00
2018-11-07T11:04:59.470Z,1.00
2018-11-07T11:07:29.934Z,1.00
2018-11-07T11:10:01.620Z,1.00
2018-11-07T11:12:32.567Z,1.00
2018-11-07T11:15:03.273Z,1.00
2018-11-07T11:17:34.354Z,1.00
2018-11-07T11:20:07.852Z,1.00
2018-11-07T11:22:38.687Z,1.00
2018-11-07T11:25:10.398Z,1.00
2018-11-07T11:27:41.129Z,1.00
2018-11-07T11:30:11.938Z,1.00
2018-11-07T11:32:42.588Z,1.00
2018-11-07T11:35:13.965Z,1.00
2018-11-07T11:37:44.639Z,1.00
2018-11-07T11:40:15.723Z,1.00
2018-11-07T11:42:46.594Z,1.00
2018-11-07T11:45:18.235Z,1.00
2018-11-07T11:47:49.050Z,1.00
2018-11-07T11:50:20.898Z,1.00
2018-11-07T11:52:51.832Z,1.00
2018-11-07T11:55:22.578Z,1.00
2018-11-07T11:57:53.929Z,1.00
2018-11-07T12:00:24.635Z,1.00
2018-11-07T12:02:55.932Z,1.00
2018-11-07T12:05:27.233Z,1.00
2018-11-07T12:07:58.631Z,1.00
2018-11-07T12:10:29.421Z,1.00
2018-11-07T12:13:00.525Z,1.00
2018-11-07T12:15:31.536Z,1.00
2018-11-07T12:18:02.364Z,1.00
2018-11-07T12:20:33.124Z,1.00
2018-11-07T12:23:04.067Z,1.00
2018-11-07T12:25:35.317Z,1.00
2018-11-07T12:28:06.195Z,1.00
2018-11-07T12:30:37.207Z,1.00
2018-11-07T12:33:08.663Z,1.00
2018-11-07T12:35:39.739Z,1.00
2018-11-07T12:38:10.988Z,1.00
2018-11-07T12:40:42.385Z,1.00
2018-11-07T12:43:13.206Z,1.00
2018-11-07T12:45:43.847Z,1.00
2018-11-07T12:48:14.651Z,1.00
2018-11-07T12:50:45.465Z,1.00
2018-11-07T12:53:16.484Z,1.00
2018-11-07T12:55:47.669Z,1.00
2018-11-07T12:58:18.870Z,1.00
2018-11-07T13:00:50.443Z,1.00
2018-11-07T13:03:20.999Z,1.00
2018-11-07T13:05:51.615Z,1.00
2018-11-07T13:08:22.445Z,1.00
2018-11-07T13:10:53.262Z,1.00
2018-11-07T13:13:24.053Z,1.00
2018-11-07T13:15:54.781Z,1.00
2018-11-07T13:18:25.327Z,1.00
2018-11-07T13:20:56.219Z,1.00
2018-11-07T13:23:26.887Z,1.00
2018-11-07T13:25:57.787Z,1.00
2018-11-07T13:28:28.343Z,1.00
2018-11-07T13:30:59.237Z,1.00
2018-11-07T13:33:29.360Z,1.00
2018-11-07T13:35:59.804Z,1.00
2018-11-07T13:48:14.889Z,1.00
2018-11-07T13:50:45.798Z,1.00
2018-11-07T13:53:16.512Z,1.00
2018-11-07T13:55:46.973Z,1.00
2018-11-07T13:58:17.728Z,1.00
2018-11-07T14:00:48.288Z,1.00
2018-11-07T14:03:19.422Z,1.00
2018-11-07T14:05:50.729Z,1.00
2018-11-07T14:08:21.367Z,1.00
2018-11-07T14:10:51.763Z,1.00
2018-11-07T14:13:22.568Z,1.00
2018-11-07T14:15:52.929Z,1.00
2018-11-07T14:18:23.296Z,1.00
2018-11-07T14:20:54.203Z,1.00
2018-11-07T14:23:24.351Z,1.00
2018-11-07T14:25:54.852Z,1.00
2018-11-07T14:28:25.543Z,1.00
2018-11-07T14:30:57.464Z,1.00
2018-11-07T14:33:28.737Z,1.00
2018-11-07T14:36:00.942Z,1.00
2018-11-07T14:38:32.524Z,1.00
2018-11-07T14:41:03.917Z,1.00
2018-11-07T14:43:35.450Z,1.00
2018-11-07T14:46:06.761Z,1.00
2018-11-07T14:48:37.849Z,1.00
2018-11-07T14:51:08.752Z,1.00
2018-11-07T14:53:39.564Z,1.00
2018-11-07T14:56:10.137Z,1.00
2018-11-07T14:58:40.562Z,1.00
2018-11-07T15:01:10.956Z,1.00
2018-11-07T15:03:41.148Z,6.70
2018-11-07T15:06:11.661Z,24.70
2018-11-07T15:08:42.159Z,52.00
2018-11-07T15:11:13.304Z,77.70
2018-11-07T15:13:43.516Z,99.90
2018-11-07T15:16:14.392Z,99.90
2018-11-07T15:18:45.396Z,99.90
2018-11-07T15:21:17.602Z,99.90
2018-11-07T15:23:48.851Z,99.90
2018-11-07T15:26:19.660Z,99.90
2018-11-07T15:28:51.323Z,99.90
2018-11-07T15:31:21.760Z,99.90
2018-11-07T15:33:52.108Z,99.90
2018-11-07T15:36:22.902Z,99.90
2018-11-07T15:38:55.052Z,99.90
2018-11-07T15:41:25.827Z,99.90
2018-11-07T15:43:56.163Z,99.90
2018-11-07T15:46:26.340Z,99.90
2018-11-07T15:48:56.742Z,1.00
2018-11-07T15:51:32.071Z,1.00
2018-11-07T15:54:02.244Z,1.00
2018-11-07T15:56:32.937Z,1.00
2018-11-07T15:59:03.537Z,1.00
2018-11-07T16:01:34.138Z,1.00
2018-11-07T16:04:04.410Z,1.00
2018-11-07T16:06:34.865Z,1.00
2018-11-07T16:09:07.271Z,1.00
2018-11-07T16:11:37.561Z,1.00
2018-11-07T16:14:10.099Z,1.00
2018-11-07T16:16:40.498Z,1.00
2018-11-07T16:19:11.892Z,1.00
2018-11-07T16:21:42.118Z,1.00
2018-11-07T16:24:13.499Z,1.00
2018-11-07T16:26:43.806Z,1.00
2018-11-07T16:29:15.276Z,1.00
2018-11-07T16:31:46.659Z,1.00
2018-11-07T16:34:17.849Z,1.00
2018-11-07T16:36:48.464Z,1.00
2018-11-07T16:39:19.044Z,1.00
2018-11-07T16:41:49.759Z,1.00
2018-11-07T16:44:20.071Z,1.00
2018-11-07T16:46:51.307Z,1.00
2018-11-07T16:49:23.183Z,1.00
2018-11-07T16:51:54.610Z,1.00
2018-11-07T16:54:25.161Z,1.00
2018-11-07T16:56:55.818Z,1.00
2018-11-07T16:59:28.572Z,1.00
2018-11-07T17:01:59.299Z,1.00
2018-11-07T17:04:30.119Z,1.00
2018-11-07T17:07:01.010Z,1.00
2018-11-07T17:09:31.939Z,1.00
2018-11-07T17:12:02.343Z,1.00
2018-11-07T17:14:33.128Z,1.00
2018-11-07T17:17:03.617Z,1.00
2018-11-07T17:19:33.952Z,1.00
2018-11-07T17:22:04.615Z,1.00
2018-11-07T17:24:35.307Z,1.00
2018-11-07T17:27:06.499Z,1.00
2018-11-07T17:29:37.286Z,1.00
2018-11-07T17:32:07.749Z,1.00
2018-11-07T17:34:38.311Z,1.00
2018-11-07T17:37:08.791Z,1.00
2018-11-07T17:39:39.408Z,1.00
2018-11-07T17:42:10.092Z,1.00
2018-11-07T17:44:40.724Z,1.00
2018-11-07T17:47:11.641Z,1.00
2018-11-07T17:49:42.109Z,1.00
2018-11-07T17:52:12.697Z,1.00
2018-11-07T17:54:43.180Z,1.00
2018-11-07T17:57:13.537Z,1.00
2018-11-07T17:59:44.075Z,1.00
2018-11-07T18:02:14.398Z,1.00
2018-11-07T18:04:45.014Z,99.90
2018-11-07T18:07:15.548Z,99.90
2018-11-07T18:09:46.286Z,99.90
2018-11-07T18:12:17.080Z,99.90
2018-11-07T18:14:48.020Z,99.90
2018-11-07T18:17:18.379Z,99.90
2018-11-07T18:19:48.772Z,99.90
2018-11-07T18:22:19.916Z,1.00
2018-11-07T18:24:50.215Z,1.40
2018-11-07T18:27:20.999Z,1.00
2018-11-07T18:29:51.533Z,1.00
2018-11-07T18:32:22.210Z,1.00
2018-11-07T18:34:52.687Z,99.90
2018-11-07T18:37:23.517Z,99.90
2018-11-07T18:39:54.249Z,99.90
2018-11-07T18:42:24.707Z,99.90
2018-11-07T18:44:55.289Z,99.90
2018-11-07T18:47:25.734Z,99.90
2018-11-07T18:49:56.431Z,99.90
2018-11-07T18:52:26.882Z,99.90
2018-11-07T18:54:57.152Z,99.90
2018-11-07T18:57:27.940Z,99.90
2018-11-07T18:59:58.329Z,99.90
2018-11-07T19:02:28.824Z,99.90
2018-11-07T19:04:59.023Z,99.90
2018-11-07T19:07:29.367Z,99.90
2018-11-07T19:09:59.753Z,99.90
2018-11-07T19:12:30.101Z,99.90
2018-11-07T19:15:00.639Z,99.90
2018-11-07T19:17:30.888Z,99.90
2018-11-07T19:20:01.448Z,99.90
2018-11-07T19:22:32.165Z,99.90
2018-11-07T19:25:02.567Z,99.90
2018-11-07T19:27:34.037Z,99.90
2018-11-07T19:30:04.763Z,99.90
2018-11-07T19:32:35.422Z,99.90
2018-11-07T19:35:07.768Z,1.00
2018-11-07T19:37:41.463Z,1.00
2018-11-07T19:40:13.644Z,1.00
2018-11-07T19:42:44.452Z,1.00
2018-11-07T19:45:16.688Z,1.00
2018-11-07T19:47:47.714Z,1.00
2018-11-07T19:50:19.955Z,1.00
2018-11-07T19:52:51.096Z,1.00
2018-11-07T19:55:23.161Z,1.00
2018-11-07T19:57:58.957Z,1.00
2018-11-07T20:00:30.845Z,1.00
2018-11-07T20:03:01.388Z,1.00
2018-11-07T20:05:31.965Z,1.00
2018-11-07T20:08:02.417Z,1.00
2018-11-07T20:10:33.829Z,1.00
2018-11-07T20:13:04.366Z,1.00
2018-11-07T20:15:35.060Z,1.00
2018-11-07T20:18:06.619Z,1.00
2018-11-07T20:20:37.871Z,1.00
2018-11-07T20:23:09.051Z,1.00
2018-11-07T20:25:40.319Z,1.00
2018-11-07T20:28:11.068Z,1.00
2018-11-07T20:30:41.887Z,1.00
2018-11-07T20:33:12.987Z,1.00
2018-11-07T20:35:44.152Z,1.00
2018-11-07T20:38:15.344Z,1.00
2018-11-07T20:40:46.212Z,1.00
2018-11-07T20:43:18.325Z,1.00
2018-11-07T20:45:49.182Z,1.00
2018-11-07T20:48:20.032Z,1.00
2018-11-07T20:50:51.103Z,1.00
2018-11-07T20:53:22.102Z,1.00
2018-11-07T20:55:53.030Z,1.00
2018-11-07T20:58:24.390Z,1.00
2018-11-07T21:00:55.418Z,1.00
2018-11-07T21:03:26.215Z,1.00
2018-11-07T21:05:56.879Z,1.00
2018-11-07T21:08:28.327Z,1.00
2018-11-07T21:10:59.671Z,1.00
2018-11-07T21:13:31.085Z,1.00
2018-11-07T21:16:02.179Z,1.00
2018-11-07T21:18:34.124Z,1.00
2018-11-07T21:21:06.052Z,1.00
2018-11-07T21:23:36.754Z,1.00
2018-11-07T21:26:07.927Z,1.00
2018-11-07T21:28:38.815Z,1.00
2018-11-07T21:31:10.037Z,1.00
2018-11-07T21:33:41.357Z,99.90
2018-11-07T21:36:12.005Z,99.90
2018-11-07T21:38:42.918Z,99.90
2018-11-07T21:41:13.699Z,99.90
2018-11-07T21:43:44.525Z,99.90
2018-11-07T21:46:15.666Z,99.90
2018-11-07T21:48:46.265Z,99.90
2018-11-07T21:51:17.088Z,99.90
2018-11-07T21:53:47.960Z,99.90
2018-11-07T21:56:19.064Z,99.90
2018-11-07T21:58:49.809Z,99.90
2018-11-07T22:01:20.534Z,99.90
2018-11-07T22:03:51.294Z,99.90
2018-11-07T22:06:22.191Z,99.90
2018-11-07T22:08:53.016Z,99.90
2018-11-07T22:11:23.997Z,99.90
2018-11-07T22:13:54.536Z,99.90
2018-11-07T22:16:25.568Z,99.90
2018-11-07T22:18:56.379Z,99.90
2018-11-07T22:21:26.869Z,99.90
2018-11-07T22:23:57.506Z,99.90
2018-11-07T22:26:28.613Z,99.90
2018-11-07T22:28:59.339Z,99.90
2018-11-07T22:31:30.025Z,99.90
2018-11-07T22:34:00.888Z,99.90
2018-11-07T22:36:31.659Z,99.90
2018-11-07T22:39:02.484Z,99.90
2018-11-07T22:41:33.286Z,99.90
2018-11-07T22:44:04.169Z,99.90
2018-11-07T22:46:34.858Z,1.00
2018-11-07T22:49:06.197Z,1.00
2018-11-07T22:51:36.891Z,1.00
2018-11-07T22:54:07.532Z,1.00
2018-11-07T22:56:38.186Z,1.00
2018-11-07T22:59:08.546Z,1.00
2018-11-07T23:01:39.829Z,1.00
2018-11-07T23:04:10.938Z,1.00
2018-11-07T23:06:41.662Z,1.00
2018-11-07T23:09:13.338Z,1.00
2018-11-07T23:11:45.108Z,1.00
2018-11-07T23:14:16.179Z,1.00
2018-11-07T23:16:46.869Z,1.00
2018-11-07T23:19:17.888Z,1.00
2018-11-07T23:21:49.413Z,1.00
2018-11-07T23:24:20.152Z,1.00
2018-11-07T23:26:51.048Z,1.00
2018-11-07T23:29:21.993Z,1.00
2018-11-07T23:31:53.011Z,1.00
2018-11-07T23:34:24.070Z,1.00
2018-11-07T23:36:54.910Z,1.00
2018-11-07T23:39:25.220Z,1.00
2018-11-07T23:41:55.765Z,1.00
2018-11-07T23:44:25.982Z,1.00
2018-11-07T23:46:56.766Z,1.00
2018-11-07T23:49:27.389Z,1.00
2018-11-07T23:51:57.982Z,1.00
2018-11-07T23:54:28.661Z,1.00
2018-11-07T23:56:59.297Z,1.00
2018-11-07T23:59:30.181Z,1.00
